Time;durP1;ratioP1;P1;durP2;ratioP2;P2;SDS_P1;SDS_P2;PMS_P1;PMS_P2;Temp;Humidity;BMP_temperature;BMP_pressure;BME280_temperature;BME280_humidity;BME280_pressure;Samples;Min_cycle;Max_cycle;Signal;HPM_P1;HPM_P2
2022/07/13 00:01:06;;;;;;;4.50;1.67;;;25.10;60.30;;;;;;5032142;28;20565;-76
2022/07/13 00:03:31;;;;;;;3.67;1.87;;;25.10;60.40;;;;;;5031620;28;20177;-76
2022/07/13 00:05:57;;;;;;;3.60;1.77;;;25.10;60.70;;;;;;5033574;28;20173;-76
2022/07/13 00:08:23;;;;;;;6.77;1.50;;;25.20;61.10;;;;;;5015700;28;20652;-76
2022/07/13 00:10:49;;;;;;;3.33;1.70;;;25.10;61.20;;;;;;5033030;28;20200;-76
2022/07/13 00:13:14;;;;;;;3.27;1.80;;;25.10;61.40;;;;;;4998748;28;20573;-76
2022/07/13 00:15:40;;;;;;;2.87;1.77;;;25.10;61.50;;;;;;5032962;28;20196;-76
2022/07/13 00:18:06;;;;;;;4.63;2.10;;;25.10;61.70;;;;;;5032623;28;20215;-76
2022/07/13 00:20:32;;;;;;;2.30;1.30;;;25.10;62.00;;;;;;5031686;28;20216;-76
2022/07/13 00:22:58;;;;;;;2.50;1.67;;;25.10;62.30;;;;;;5032650;28;20166;-76
2022/07/13 00:25:23;;;;;;;3.13;2.07;;;25.10;62.50;;;;;;5032854;28;20592;-76
2022/07/13 00:27:49;;;;;;;4.20;2.20;;;25.10;63.00;;;;;;5047877;28;20173;-76
2022/07/13 00:30:15;;;;;;;4.90;2.20;;;25.00;63.20;;;;;;5032599;28;20213;-75
2022/07/13 00:32:41;;;;;;;2.63;1.77;;;25.00;63.50;;;;;;5026586;28;21119;-76
2022/07/13 00:35:07;;;;;;;4.60;1.83;;;25.00;63.60;;;;;;5022653;28;20197;-76
2022/07/13 00:37:33;;;;;;;3.23;1.87;;;25.00;64.20;;;;;;5027003;28;20696;-76
2022/07/13 00:39:59;;;;;;;4.30;1.67;;;24.90;64.50;;;;;;5002788;28;20584;-76
2022/07/13 00:42:27;;;;;;;2.77;1.60;;;24.90;65.00;;;;;;5012085;28;20180;-76
2022/07/13 00:44:53;;;;;;;4.17;1.77;;;24.90;66.20;;;;;;5030756;28;20632;-76
2022/07/13 00:47:19;;;;;;;2.47;1.50;;;24.90;67.00;;;;;;5032554;28;20576;-76
2022/07/13 00:49:45;;;;;;;2.20;1.20;;;24.80;66.90;;;;;;5032095;28;20991;-76
2022/07/13 00:52:11;;;;;;;1.77;1.13;;;24.80;67.50;;;;;;5031323;28;20608;-76
2022/07/13 00:54:40;;;;;;;2.67;1.53;;;24.80;69.00;;;;;;5031881;28;20239;-76
2022/07/13 00:57:09;;;;;;;3.23;1.70;;;24.80;68.60;;;;;;5031054;28;20568;-76
2022/07/13 00:59:36;;;;;;;2.27;1.40;;;24.70;68.90;;;;;;5031271;28;20667;-75
2022/07/13 01:02:02;;;;;;;3.17;1.37;;;24.70;69.70;;;;;;5031194;28;20557;-76
2022/07/13 01:04:28;;;;;;;5.33;2.53;;;24.70;70.00;;;;;;5030516;28;20622;-76
2022/07/13 01:06:55;;;;;;;1.90;1.13;;;24.70;70.50;;;;;;4998019;28;21127;-76
2022/07/13 01:09:22;;;;;;;4.67;1.57;;;24.70;71.00;;;;;;5014354;28;20634;-76
2022/07/13 01:11:51;;;;;;;5.30;1.80;;;24.70;71.70;;;;;;5047071;28;20616;-76
2022/07/13 01:14:17;;;;;;;2.23;1.30;;;24.70;72.10;;;;;;5013983;28;20619;-76
2022/07/13 01:16:44;;;;;;;2.60;1.30;;;24.60;72.50;;;;;;5030789;28;20572;-76
2022/07/13 01:19:13;;;;;;;2.50;1.33;;;24.60;73.10;;;;;;5032150;28;20597;-76
2022/07/13 01:21:44;;;;;;;4.10;1.90;;;24.50;74.00;;;;;;5031666;28;20567;-76
2022/07/13 01:24:11;;;;;;;3.00;1.20;;;24.50;74.60;;;;;;5029832;28;20596;-76
2022/07/13 01:26:38;;;;;;;3.40;1.60;;;24.40;74.70;;;;;;5030783;28;20955;-76
2022/07/13 01:29:06;;;;;;;2.13;1.20;;;24.40;75.60;;;;;;5030557;28;20576;-76
2022/07/13 01:31:41;;;;;;;2.90;1.43;;;24.30;76.20;;;;;;5030387;28;20608;-76
2022/07/13 01:34:08;;;;;;;2.97;2.33;;;24.20;77.00;;;;;;5030097;28;20599;-76
2022/07/13 01:36:35;;;;;;;2.27;1.23;;;24.20;77.50;;;;;;5030583;28;20592;-75
2022/07/13 01:39:01;;;;;;;1.67;1.50;;;24.20;78.10;;;;;;5030397;28;20561;-76
2022/07/13 01:41:29;;;;;;;2.00;1.10;;;24.20;78.50;;;;;;5030252;28;20655;-76
2022/07/13 01:48:01;;;;;;;2.83;1.00;;;24.10;79.90;;;;;;5031583;28;21139;-76
2022/07/13 01:50:28;;;;;;;1.97;1.00;;;24.10;79.70;;;;;;5029858;28;20608;-76
2022/07/13 01:52:54;;;;;;;2.10;1.40;;;24.10;80.50;;;;;;5013616;28;20949;-76
2022/07/13 01:55:20;;;;;;;4.10;1.53;;;24.10;81.20;;;;;;5029710;28;20272;-76
2022/07/13 01:57:47;;;;;;;2.10;1.20;;;24.00;81.90;;;;;;5030653;28;20675;-75
2022/07/13 02:00:14;;;;;;;3.70;1.30;;;24.00;82.50;;;;;;5013406;28;20173;-76
2022/07/13 02:02:41;;;;;;;3.60;1.60;;;24.00;83.00;;;;;;5031555;28;20560;-76
2022/07/13 02:05:11;;;;;;;1.80;1.27;;;23.90;85.60;;;;;;5029468;28;20686;-76
2022/07/13 02:07:42;;;;;;;2.93;1.47;;;23.90;85.20;;;;;;5013556;28;20572;-76
2022/07/13 02:10:12;;;;;;;2.13;1.20;;;23.90;85.50;;;;;;5013304;28;20670;-76
2022/07/13 02:12:40;;;;;;;1.70;1.17;;;23.90;86.40;;;;;;5030256;28;20675;-76
2022/07/13 02:15:08;;;;;;;2.37;1.10;;;23.80;86.30;;;;;;5029745;28;20654;-76
2022/07/13 02:17:34;;;;;;;2.53;1.30;;;23.80;87.00;;;;;;5013781;28;20664;-76
2022/07/13 02:20:03;;;;;;;2.23;1.10;;;23.80;87.10;;;;;;5029928;28;20699;-76
2022/07/13 02:22:46;;;;;;;1.93;1.30;;;23.70;87.40;;;;;;5029830;28;20630;-76
2022/07/13 02:25:15;;;;;;;2.10;0.97;;;23.70;88.10;;;;;;5013004;28;20604;-76
2022/07/13 02:27:42;;;;;;;2.50;1.50;;;23.70;88.20;;;;;;5030065;28;20583;-76
2022/07/13 02:30:14;;;;;;;1.83;1.10;;;23.70;88.20;;;;;;5029645;28;20611;-76
2022/07/13 02:32:45;;;;;;;2.00;1.20;;;23.70;88.70;;;;;;5031082;28;20619;-76
2022/07/13 02:35:12;;;;;;;3.00;1.10;;;23.80;89.20;;;;;;5030568;28;21475;-76
2022/07/13 02:37:38;;;;;;;2.93;1.57;;;23.80;89.20;;;;;;5031035;28;20668;-76
2022/07/13 02:40:06;;;;;;;1.80;1.40;;;23.80;89.80;;;;;;5032095;28;20981;-76
2022/07/13 02:42:32;;;;;;;2.43;1.20;;;23.80;90.00;;;;;;5033795;28;20576;-76
2022/07/13 02:44:58;;;;;;;2.40;1.27;;;23.70;90.00;;;;;;5016722;28;20642;-76
2022/07/13 02:47:24;;;;;;;2.53;1.33;;;23.70;90.30;;;;;;5017263;28;20177;-76
2022/07/13 02:49:50;;;;;;;2.00;1.27;;;23.70;90.50;;;;;;5033267;28;20569;-76
2022/07/13 02:52:17;;;;;;;2.00;1.20;;;23.70;90.50;;;;;;5017084;28;20572;-76
2022/07/13 02:54:43;;;;;;;7.33;1.60;;;23.70;90.80;;;;;;5034423;28;20284;-76
2022/07/13 02:57:09;;;;;;;3.13;1.30;;;23.70;91.00;;;;;;5017214;28;20576;-76
2022/07/13 02:59:36;;;;;;;2.03;1.10;;;23.60;91.10;;;;;;5033015;28;20671;-76
2022/07/13 03:02:06;;;;;;;2.00;1.00;;;23.60;91.10;;;;;;5033569;28;20572;-76
2022/07/13 03:04:33;;;;;;;2.80;1.10;;;23.60;91.30;;;;;;5032689;28;21031;-76
2022/07/13 03:07:00;;;;;;;1.87;1.00;;;23.60;91.50;;;;;;5033086;28;20611;-76
2022/07/13 03:09:26;;;;;;;2.10;1.53;;;23.60;91.50;;;;;;5033281;28;20568;-76
2022/07/13 03:11:51;;;;;;;1.63;0.97;;;23.60;91.60;;;;;;5016322;28;20956;-76
2022/07/13 03:14:18;;;;;;;2.10;1.40;;;23.50;91.60;;;;;;5032627;28;20189;-76
2022/07/13 03:16:44;;;;;;;1.67;1.00;;;23.50;91.90;;;;;;5033051;28;20617;-76
2022/07/13 03:19:10;;;;;;;1.93;1.47;;;23.50;92.00;;;;;;5034553;28;20572;-76
2022/07/13 03:21:36;;;;;;;2.03;1.40;;;23.40;92.00;;;;;;5032420;28;20260;-76
2022/07/13 03:24:03;;;;;;;2.20;1.33;;;23.40;92.10;;;;;;5032277;28;20630;-76
2022/07/13 03:26:29;;;;;;;1.63;1.00;;;23.30;92.40;;;;;;5016280;28;20596;-76
2022/07/13 03:28:56;;;;;;;2.90;1.07;;;23.30;92.40;;;;;;5016446;28;20584;-77
2022/07/13 03:31:22;;;;;;;2.33;1.30;;;23.30;92.80;;;;;;5032505;28;20200;-76
2022/07/13 03:33:48;;;;;;;2.53;1.07;;;23.30;92.50;;;;;;5032667;28;20638;-76
2022/07/13 03:36:15;;;;;;;1.60;1.00;;;23.30;92.50;;;;;;5032171;28;20572;-76
2022/07/13 03:38:41;;;;;;;3.00;1.63;;;23.30;92.80;;;;;;5034550;28;20622;-76
2022/07/13 03:41:07;;;;;;;1.90;1.00;;;23.20;92.80;;;;;;5032524;28;20665;-77
2022/07/13 03:43:33;;;;;;;4.37;1.20;;;23.20;93.00;;;;;;5016099;28;20583;-76
2022/07/13 03:46:00;;;;;;;2.10;1.10;;;23.20;93.20;;;;;;5032139;28;20576;-76
2022/07/13 03:48:27;;;;;;;1.60;1.03;;;23.30;93.20;;;;;;5032718;28;20568;-76
2022/07/13 03:50:53;;;;;;;2.43;0.97;;;23.30;93.10;;;;;;5031335;28;20624;-76
2022/07/13 03:53:21;;;;;;;2.77;1.10;;;23.30;93.10;;;;;;5032237;28;20583;-75
2022/07/13 03:55:47;;;;;;;1.90;1.13;;;23.40;93.10;;;;;;5032626;28;20960;-75
2022/07/13 03:58:16;;;;;;;4.37;1.90;;;23.40;93.10;;;;;;5033616;28;20575;-76
2022/07/13 04:00:43;;;;;;;2.27;0.90;;;23.40;93.10;;;;;;5033759;28;20667;-75
2022/07/13 04:03:09;;;;;;;2.00;1.10;;;23.40;93.20;;;;;;5017071;28;20726;-75
2022/07/13 04:05:35;;;;;;;1.67;1.00;;;23.50;93.30;;;;;;5034602;28;20212;-76
2022/07/13 04:08:02;;;;;;;1.50;1.00;;;23.50;93.30;;;;;;5033149;28;20582;-76
2022/07/13 04:10:27;;;;;;;1.70;1.30;;;23.50;93.30;;;;;;5015383;28;20727;-76
2022/07/13 04:12:53;;;;;;;2.77;0.90;;;23.50;93.20;;;;;;5033495;28;20600;-76
2022/07/13 04:15:20;;;;;;;2.50;1.20;;;23.50;93.20;;;;;;5031501;28;20732;-75
2022/07/13 04:17:47;;;;;;;2.27;1.00;;;23.50;93.20;;;;;;5032260;28;20619;-76
2022/07/13 04:20:14;;;;;;;2.07;1.00;;;23.50;93.20;;;;;;5015253;28;20184;-76
2022/07/13 04:22:44;;;;;;;1.50;0.87;;;23.50;93.20;;;;;;5032303;28;20623;-76
2022/07/13 04:25:11;;;;;;;1.50;0.90;;;23.50;93.20;;;;;;5031669;28;20639;-76
2022/07/13 04:27:39;;;;;;;3.70;1.23;;;23.50;93.10;;;;;;5032043;28;20626;-77
2022/07/13 04:30:06;;;;;;;1.60;0.90;;;23.60;93.20;;;;;;5031557;28;20630;-76
2022/07/13 04:32:31;;;;;;;2.50;0.97;;;23.60;93.20;;;;;;5033021;28;20933;-76
2022/07/13 04:34:58;;;;;;;1.70;1.03;;;23.70;93.20;;;;;;5031408;28;20695;-76
2022/07/13 04:37:26;;;;;;;1.70;1.20;;;23.60;93.10;;;;;;5031607;28;20569;-76
2022/07/13 04:39:52;;;;;;;3.30;2.80;;;23.60;93.10;;;;;;5031379;28;20999;-76
2022/07/13 04:42:19;;;;;;;2.10;1.23;;;23.60;93.20;;;;;;5036111;28;20563;-76
2022/07/13 04:44:45;;;;;;;2.10;1.03;;;23.60;93.20;;;;;;5015235;28;20649;-76
2022/07/13 04:47:11;;;;;;;2.90;1.30;;;23.60;93.30;;;;;;5031246;28;20990;-76
2022/07/13 04:49:38;;;;;;;4.60;0.90;;;23.70;93.30;;;;;;5031246;28;20931;-76
2022/07/13 04:52:05;;;;;;;2.77;1.10;;;23.70;93.30;;;;;;5031596;28;20620;-76
2022/07/13 04:54:33;;;;;;;3.07;0.97;;;23.70;93.40;;;;;;5030618;28;21235;-76
2022/07/13 04:56:59;;;;;;;2.10;1.00;;;23.70;93.40;;;;;;5031359;28;20583;-76
2022/07/13 04:59:25;;;;;;;2.03;1.10;;;23.70;93.40;;;;;;5031198;28;20581;-76
2022/07/13 05:01:53;;;;;;;2.27;1.00;;;23.70;93.40;;;;;;5030945;28;20568;-76
2022/07/13 05:04:19;;;;;;;5.50;1.17;;;23.70;93.40;;;;;;5030270;28;20616;-76
2022/07/13 05:06:45;;;;;;;2.10;1.00;;;23.80;93.40;;;;;;5031175;28;20577;-76
2022/07/13 05:09:11;;;;;;;2.03;1.10;;;23.80;93.40;;;;;;5032439;28;20522;-76
2022/07/13 05:11:39;;;;;;;2.47;1.20;;;23.80;93.40;;;;;;5030696;28;21155;-76
2022/07/13 05:14:05;;;;;;;1.60;1.10;;;23.80;93.40;;;;;;5031068;28;20597;-82
2022/07/13 05:16:32;;;;;;;2.57;1.07;;;23.80;93.50;;;;;;5030964;28;20568;-82
2022/07/13 05:19:00;;;;;;;2.13;1.00;;;23.80;93.50;;;;;;5018134;28;21139;-82
2022/07/13 05:21:32;;;;;;;1.80;1.00;;;23.80;93.60;;;;;;5014313;28;20604;-82
2022/07/13 05:23:58;;;;;;;3.47;0.83;;;23.90;93.70;;;;;;5031118;28;21011;-82
2022/07/13 05:26:24;;;;;;;2.53;0.90;;;23.90;93.70;;;;;;5032033;28;20600;-82
2022/07/13 05:28:50;;;;;;;1.70;1.20;;;23.90;93.80;;;;;;5031009;28;20172;-82
2022/07/13 05:31:16;;;;;;;1.77;1.10;;;23.90;93.80;;;;;;5030399;28;20620;-83
2022/07/13 05:33:43;;;;;;;2.47;1.00;;;23.90;93.80;;;;;;5030541;28;20173;-82
2022/07/13 05:36:15;;;;;;;3.07;1.20;;;24.00;93.90;;;;;;5014210;28;20611;-82
2022/07/13 05:38:41;;;;;;;2.80;0.90;;;24.10;94.00;;;;;;5030465;28;20568;-82
2022/07/13 05:41:07;;;;;;;2.27;0.97;;;24.10;94.00;;;;;;5030686;28;20576;-82
2022/07/13 05:43:33;;;;;;;3.27;1.20;;;24.20;94.10;;;;;;5013781;28;20208;-82
2022/07/13 05:45:58;;;;;;;4.60;1.37;;;24.20;94.20;;;;;;5030229;28;20924;-82
2022/07/13 05:48:24;;;;;;;3.47;1.30;;;24.20;94.20;;;;;;5031962;28;20170;-82
2022/07/13 05:50:51;;;;;;;5.83;1.13;;;24.20;94.20;;;;;;5032489;28;20288;-81
2022/07/13 05:53:19;;;;;;;2.37;1.10;;;24.20;94.60;;;;;;5030791;28;20525;-82
2022/07/13 05:55:46;;;;;;;2.57;1.30;;;24.20;94.30;;;;;;5034701;28;21005;-82
2022/07/13 05:58:13;;;;;;;2.33;1.30;;;24.20;94.30;;;;;;5031674;28;20664;-82
2022/07/13 06:00:38;;;;;;;7.33;1.43;;;24.20;94.40;;;;;;5030052;28;20543;-82
2022/07/13 06:03:04;;;;;;;4.03;1.20;;;24.20;94.40;;;;;;5031866;28;20568;-82
2022/07/13 06:05:30;;;;;;;1.60;1.00;;;24.20;94.30;;;;;;5013062;28;20205;-82
2022/07/13 06:07:56;;;;;;;1.93;1.20;;;24.20;94.30;;;;;;5031660;28;20485;-83
2022/07/13 06:10:22;;;;;;;3.20;1.17;;;24.30;94.30;;;;;;5031487;28;20193;-84
2022/07/13 06:12:47;;;;;;;3.23;1.40;;;24.40;94.40;;;;;;5034876;28;20166;-84
2022/07/13 06:15:13;;;;;;;2.20;1.20;;;24.50;94.40;;;;;;5033274;28;20765;-84
2022/07/13 06:17:39;;;;;;;2.73;1.20;;;24.50;94.40;;;;;;5036271;28;20564;-84
2022/07/13 06:20:06;;;;;;;2.17;1.30;;;24.70;94.50;;;;;;5037108;28;20244;-83
2022/07/13 06:22:31;;;;;;;2.33;1.20;;;24.80;94.40;;;;;;5036870;28;20169;-83
2022/07/13 06:24:58;;;;;;;3.47;1.30;;;24.90;94.30;;;;;;5026865;28;20612;-84
2022/07/13 06:27:24;;;;;;;2.60;1.10;;;25.10;94.30;;;;;;5025473;28;20174;-84
2022/07/13 06:29:49;;;;;;;2.80;1.10;;;25.20;94.20;;;;;;5021631;28;20568;-83
2022/07/13 06:32:15;;;;;;;2.57;1.13;;;25.50;94.20;;;;;;5039323;28;20280;-83
2022/07/13 06:34:41;;;;;;;3.47;1.37;;;25.70;93.90;;;;;;5040969;28;20554;-84
2022/07/13 06:37:07;;;;;;;2.67;1.10;;;25.90;93.60;;;;;;5037303;28;20568;-84
2022/07/13 06:39:33;;;;;;;2.47;1.13;;;26.10;93.50;;;;;;5036854;28;20256;-84
2022/07/13 06:41:59;;;;;;;3.67;1.20;;;26.60;93.60;;;;;;5034421;28;20174;-84
2022/07/13 06:44:25;;;;;;;3.00;1.50;;;27.30;93.40;;;;;;5034622;28;20650;-84
2022/07/13 06:46:51;;;;;;;2.10;1.20;;;27.80;92.80;;;;;;5038121;28;20248;-85
2022/07/13 06:49:17;;;;;;;3.00;1.37;;;28.10;91.90;;;;;;5040536;28;20172;-85
2022/07/13 06:51:42;;;;;;;2.10;0.97;;;28.30;90.80;;;;;;5041391;28;20240;-85
2022/07/13 06:54:08;;;;;;;1.83;0.97;;;28.40;90.10;;;;;;5038827;28;20182;-85
2022/07/13 06:56:34;;;;;;;6.00;1.10;;;28.60;89.30;;;;;;5036608;28;20169;-84
2022/07/13 06:59:00;;;;;;;6.07;1.00;;;28.70;88.10;;;;;;5035161;28;20165;-84
2022/07/13 07:01:26;;;;;;;1.80;1.00;;;28.70;87.30;;;;;;5050005;28;20181;-84
2022/07/13 07:03:52;;;;;;;2.63;1.40;;;28.80;86.90;;;;;;5033612;28;20693;-84
2022/07/13 07:06:18;;;;;;;3.87;1.07;;;29.10;86.80;;;;;;5034436;28;21150;-84
2022/07/13 07:08:43;;;;;;;5.37;1.13;;;29.50;86.40;;;;;;5035979;28;20580;-85
2022/07/13 07:11:10;;;;;;;1.97;1.13;;;29.70;85.40;;;;;;5035030;28;20198;-84
2022/07/13 07:13:35;;;;;;;3.00;1.00;;;29.90;84.30;;;;;;5041131;28;20589;-84
2022/07/13 07:16:02;;;;;;;2.00;1.10;;;30.10;83.00;;;;;;5033977;28;20663;-84
2022/07/13 07:18:28;;;;;;;2.90;1.30;;;30.10;80.70;;;;;;5026884;28;20226;-83
2022/07/13 07:20:53;;;;;;;2.33;1.20;;;30.10;79.90;;;;;;5056701;28;20583;-83
2022/07/13 07:23:19;;;;;;;3.70;1.00;;;30.10;78.70;;;;;;5055618;28;20161;-84
2022/07/13 07:25:45;;;;;;;3.27;1.13;;;30.10;78.40;;;;;;5056453;28;20193;-84
2022/07/13 07:28:11;;;;;;;3.43;0.97;;;30.10;77.60;;;;;;5057595;28;20228;-84
2022/07/13 07:30:37;;;;;;;1.57;0.87;;;30.00;78.10;;;;;;5048415;28;20292;-85
2022/07/13 07:33:03;;;;;;;2.60;1.00;;;30.10;78.00;;;;;;5037699;28;20746;-85
2022/07/13 07:35:32;;;;;;;3.37;0.97;;;30.10;77.50;;;;;;5033710;28;20197;-85
2022/07/13 07:37:57;;;;;;;5.73;1.40;;;30.10;77.00;;;;;;5034338;28;20578;-84
2022/07/13 07:40:24;;;;;;;4.40;1.20;;;30.20;76.60;;;;;;5034079;28;20576;-85
2022/07/13 07:42:49;;;;;;;2.60;1.53;;;30.20;76.30;;;;;;5034094;28;20508;-85
2022/07/13 07:45:15;;;;;;;3.33;1.10;;;30.20;75.80;;;;;;5028292;28;20634;-86
2022/07/13 07:47:41;;;;;;;3.43;1.03;;;30.30;75.50;;;;;;5014613;28;20921;-85
2022/07/13 07:50:08;;;;;;;4.13;1.50;;;30.30;75.20;;;;;;5012838;28;20642;-85
2022/07/13 07:52:34;;;;;;;2.07;1.07;;;30.30;74.90;;;;;;5012774;28;20236;-85
2022/07/13 07:54:59;;;;;;;2.67;1.23;;;30.30;74.70;;;;;;5013752;28;21018;-85
2022/07/13 07:57:25;;;;;;;1.90;1.00;;;30.30;74.30;;;;;;5014056;28;20159;-85
2022/07/13 07:59:51;;;;;;;3.90;1.53;;;30.30;74.00;;;;;;5012237;28;20218;-85
2022/07/13 08:02:17;;;;;;;2.60;1.30;;;30.20;73.70;;;;;;5012759;28;20532;-84
2022/07/13 08:04:44;;;;;;;4.47;1.60;;;30.10;73.80;;;;;;5011960;28;21300;-84
2022/07/13 08:07:11;;;;;;;2.80;1.10;;;30.00;73.80;;;;;;5013909;28;20539;-84
2022/07/13 08:09:36;;;;;;;4.07;1.40;;;29.80;74.20;;;;;;5012375;28;20899;-85
2022/07/13 08:12:04;;;;;;;3.00;1.00;;;29.70;75.20;;;;;;5013470;28;20690;-84
2022/07/13 08:14:33;;;;;;;2.33;1.03;;;29.50;76.00;;;;;;5013315;28;20286;-84
2022/07/13 08:16:59;;;;;;;4.67;1.00;;;29.40;76.50;;;;;;5013425;28;20628;-83
2022/07/13 08:19:25;;;;;;;2.13;1.17;;;29.20;77.20;;;;;;5012398;28;20565;-83
2022/07/13 08:21:51;;;;;;;3.97;1.23;;;29.00;78.40;;;;;;5013559;28;20167;-84
2022/07/13 08:24:16;;;;;;;4.03;1.20;;;28.90;78.30;;;;;;5011600;28;20641;-84
2022/07/13 08:26:42;;;;;;;2.87;1.20;;;28.80;78.50;;;;;;5012190;28;20305;-84
2022/07/13 08:29:08;;;;;;;3.33;1.30;;;28.70;79.20;;;;;;5013613;28;20174;-84
2022/07/13 08:31:34;;;;;;;3.97;1.50;;;28.60;79.80;;;;;;5013071;28;20202;-84
2022/07/13 08:39:30;;;;;;;2.73;1.40;;;29.30;83.70;;;;;;5011537;28;20624;-85
2022/07/13 08:41:59;;;;;;;1.80;1.00;;;30.30;85.60;;;;;;5012952;28;20577;-86
2022/07/13 08:44:25;;;;;;;3.40;1.20;;;31.20;85.00;;;;;;5012631;28;20220;-85
2022/07/13 08:46:51;;;;;;;3.60;1.30;;;32.00;82.60;;;;;;5013393;28;20598;-85
2022/07/13 08:49:18;;;;;;;3.03;1.20;;;32.50;80.30;;;;;;5012088;28;20221;-86
2022/07/13 08:51:46;;;;;;;3.93;1.40;;;33.10;80.20;;;;;;5011634;28;20204;-86
2022/07/13 08:54:12;;;;;;;4.53;1.13;;;33.70;77.60;;;;;;5011104;28;20606;-86
2022/07/13 08:56:41;;;;;;;2.93;1.10;;;34.30;75.80;;;;;;5013100;28;20576;-86
2022/07/13 08:59:07;;;;;;;2.93;0.93;;;34.80;73.40;;;;;;5013983;28;20566;-86
2022/07/13 09:01:33;;;;;;;3.80;1.00;;;35.20;70.80;;;;;;5012453;28;20718;-85
2022/07/13 09:03:59;;;;;;;3.33;1.03;;;35.40;68.70;;;;;;5012008;28;20750;-86
2022/07/13 09:06:45;;;;;;;2.27;1.30;;;35.70;66.60;;;;;;5029196;28;20587;-86
2022/07/13 09:09:28;;;;;;;1.70;1.10;;;35.80;64.50;;;;;;5012926;28;20576;-86
2022/07/13 09:12:18;;;;;;;2.83;1.10;;;35.90;63.20;;;;;;5012983;28;21354;-86
2022/07/13 09:14:50;;;;;;;2.77;0.97;;;36.00;62.50;;;;;;5013308;28;20588;-86
2022/07/13 09:17:49;;;;;;;3.30;1.30;;;36.20;61.40;;;;;;5013634;28;20572;-86
2022/07/13 09:20:18;;;;;;;2.53;1.00;;;36.20;60.60;;;;;;4970437;28;20597;-86
2022/07/13 09:22:47;;;;;;;2.30;1.00;;;36.20;59.20;;;;;;4995578;28;20585;-85
2022/07/13 09:25:27;;;;;;;3.40;1.20;;;36.20;58.20;;;;;;5012769;28;20605;-86
2022/07/13 09:27:53;;;;;;;4.50;1.13;;;36.20;57.30;;;;;;5013917;28;20591;-86
2022/07/13 09:30:26;;;;;;;5.10;1.17;;;36.30;57.20;;;;;;5013749;28;20569;-85
2022/07/13 09:32:54;;;;;;;5.80;2.47;;;36.20;56.20;;;;;;5011874;28;20809;-86
2022/07/13 09:35:21;;;;;;;4.90;1.10;;;36.30;56.70;;;;;;5013101;28;20589;-86
2022/07/13 09:37:48;;;;;;;3.07;1.10;;;36.50;56.70;;;;;;5012614;28;21002;-85
2022/07/13 09:40:17;;;;;;;3.07;1.20;;;36.90;56.90;;;;;;5013499;28;20572;-86
2022/07/13 09:42:45;;;;;;;2.73;1.27;;;37.30;56.50;;;;;;5013597;28;20577;-85
2022/07/13 09:47:59;;;;;;;4.30;0.87;;;38.30;53.10;;;;;;5013174;28;20606;-85
2022/07/13 09:50:51;;;;;;;3.53;0.90;;;38.70;51.40;;;;;;5016636;28;20752;-85
2022/07/13 09:53:30;;;;;;;2.13;1.13;;;39.00;50.50;;;;;;5018333;28;20621;-85
2022/07/13 09:55:58;;;;;;;5.37;1.10;;;39.30;48.80;;;;;;5017550;28;20573;-84
2022/07/13 09:58:35;;;;;;;3.60;1.00;;;39.70;47.80;;;;;;4997953;28;20613;-85
2022/07/13 10:01:04;;;;;;;3.13;1.20;;;39.90;46.00;;;;;;5017277;28;20604;-86
2022/07/13 10:03:31;;;;;;;4.63;1.20;;;40.30;45.90;;;;;;5018128;28;20581;-86
2022/07/13 10:05:58;;;;;;;3.47;0.90;;;40.60;45.20;;;;;;5019616;28;20569;-84
2022/07/13 10:08:25;;;;;;;1.50;0.83;;;40.80;43.80;;;;;;5002423;28;20593;-84
2022/07/13 10:10:52;;;;;;;5.80;1.07;;;40.80;43.00;;;;;;5020255;28;20641;-84
2022/07/13 10:13:18;;;;;;;6.70;1.00;;;40.50;41.90;;;;;;5031712;28;20624;-85
2022/07/13 10:15:45;;;;;;;2.80;0.83;;;40.10;41.30;;;;;;5030604;28;20605;-78
2022/07/13 10:18:17;;;;;;;3.43;1.10;;;39.70;40.70;;;;;;5022490;28;20676;-77
2022/07/13 10:20:49;;;;;;;2.83;1.40;;;39.30;40.50;;;;;;5021780;28;20931;-78
2022/07/13 10:23:30;;;;;;;2.50;1.47;;;38.80;40.30;;;;;;5015349;28;20573;-79
2022/07/13 10:25:56;;;;;;;3.60;2.67;;;38.30;40.10;;;;;;5024263;28;20592;-79
2022/07/13 10:28:23;;;;;;;5.10;1.63;;;38.00;40.50;;;;;;5039279;28;20964;-78
2022/07/13 10:30:49;;;;;;;4.37;1.40;;;37.50;40.40;;;;;;5031032;28;20673;-78
2022/07/13 10:33:21;;;;;;;4.10;1.73;;;37.10;40.50;;;;;;5031585;28;20978;-78
2022/07/13 10:35:52;;;;;;;2.33;1.17;;;36.80;40.70;;;;;;5030849;28;20630;-78
2022/07/13 10:38:28;;;;;;;2.73;1.43;;;36.40;41.00;;;;;;5013961;28;20678;-79
2022/07/13 10:41:21;;;;;;;4.63;1.50;;;36.10;41.20;;;;;;5031937;28;20582;-78
2022/07/13 10:43:54;;;;;;;3.70;1.20;;;35.70;41.40;;;;;;5030848;28;20704;-78
2022/07/13 10:46:49;;;;;;;5.23;1.50;;;35.40;41.70;;;;;;5030792;28;20582;-78
2022/07/13 10:49:33;;;;;;;2.90;1.47;;;35.20;42.20;;;;;;5031692;28;20571;-77
2022/07/13 10:52:17;;;;;;;2.93;1.67;;;35.10;42.80;;;;;;5027574;28;20633;-79
2022/07/13 10:55:02;;;;;;;2.47;1.10;;;35.10;42.80;;;;;;5013130;28;20667;-79
2022/07/13 10:57:29;;;;;;;2.40;1.20;;;35.10;42.60;;;;;;5030883;28;20660;-79
2022/07/13 11:00:01;;;;;;;3.10;1.17;;;35.10;42.80;;;;;;5030854;28;20581;-79
2022/07/13 11:02:54;;;;;;;2.43;1.30;;;35.10;42.70;;;;;;5034555;28;20628;-78
2022/07/13 11:05:29;;;;;;;2.77;1.50;;;35.00;42.90;;;;;;5034221;28;20618;-79
2022/07/13 11:07:55;;;;;;;6.10;1.50;;;35.10;42.90;;;;;;5034594;28;20571;-78
2022/07/13 11:10:30;;;;;;;2.70;1.70;;;35.00;42.90;;;;;;5034292;28;20622;-79
2022/07/13 11:12:57;;;;;;;3.60;2.33;;;35.00;43.00;;;;;;5034434;28;20567;-78
2022/07/13 11:15:24;;;;;;;2.90;1.87;;;35.20;43.50;;;;;;5033898;28;20600;-79
2022/07/13 11:18:14;;;;;;;2.90;2.03;;;35.30;43.70;;;;;;5034616;28;20571;-79
2022/07/13 11:20:59;;;;;;;5.43;2.00;;;35.60;43.80;;;;;;5032438;28;20588;-77
2022/07/13 11:26:45;;;;;;;3.60;1.50;;;36.20;43.70;;;;;;5033297;28;20961;-78
2022/07/13 11:29:18;;;;;;;2.17;1.10;;;36.20;43.20;;;;;;5021985;28;21000;-79
2022/07/13 11:31:45;;;;;;;3.57;1.17;;;36.40;43.00;;;;;;5033738;28;21013;-79
2022/07/13 11:34:11;;;;;;;1.83;1.20;;;36.40;42.70;;;;;;5033456;28;20599;-79
2022/07/13 11:36:40;;;;;;;2.00;1.00;;;36.30;42.40;;;;;;5034046;28;20575;-79
2022/07/13 11:39:25;;;;;;;2.17;1.10;;;36.20;42.30;;;;;;5034618;28;20560;-79
2022/07/13 11:41:52;;;;;;;2.37;1.80;;;36.10;41.90;;;;;;5033755;28;20578;-78
2022/07/13 11:44:22;;;;;;;2.00;1.57;;;36.00;42.30;;;;;;5033390;28;20643;-78
2022/07/13 11:46:48;;;;;;;3.93;2.10;;;36.00;42.60;;;;;;5034118;28;20567;-78
2022/07/13 11:49:13;;;;;;;2.63;1.20;;;36.00;42.70;;;;;;5033611;28;21174;-78
2022/07/13 11:51:43;;;;;;;2.80;1.20;;;36.10;43.10;;;;;;5033508;28;20197;-79
2022/07/13 11:54:15;;;;;;;1.50;0.90;;;36.30;43.60;;;;;;5032991;28;20715;-79
2022/07/13 11:56:51;;;;;;;1.60;1.00;;;36.50;43.40;;;;;;5033408;28;20568;-79
2022/07/13 11:59:35;;;;;;;1.60;0.90;;;36.60;42.80;;;;;;5033653;28;20580;-79
2022/07/13 12:02:02;;;;;;;2.40;0.97;;;36.70;42.50;;;;;;5034601;28;20572;-78
2022/07/13 12:04:28;;;;;;;2.40;0.83;;;36.80;42.60;;;;;;5032962;28;20669;-78
2022/07/13 12:07:13;;;;;;;2.27;0.90;;;37.00;42.70;;;;;;5033417;28;20568;-78
2022/07/13 12:09:56;;;;;;;1.93;1.00;;;37.00;42.50;;;;;;5033201;28;20595;-79
2022/07/13 12:12:30;;;;;;;2.17;0.80;;;37.20;42.10;;;;;;5031129;28;21067;-79
2022/07/13 12:14:57;;;;;;;2.63;1.40;;;37.20;42.10;;;;;;5032838;28;20605;-79
2022/07/13 12:17:25;;;;;;;2.10;1.30;;;37.30;42.30;;;;;;5033209;28;20588;-78
2022/07/13 12:19:51;;;;;;;2.13;1.10;;;37.30;41.80;;;;;;5048282;28;21206;-83
2022/07/13 12:22:23;;;;;;;2.10;0.90;;;37.40;41.50;;;;;;5033885;28;20615;-82
2022/07/13 12:24:50;;;;;;;1.60;0.80;;;37.30;41.20;;;;;;5032726;28;20966;-79
2022/07/13 12:27:21;;;;;;;2.30;1.20;;;37.30;41.30;;;;;;5034586;28;20580;-83
2022/07/13 12:29:46;;;;;;;2.10;1.20;;;37.20;40.90;;;;;;5034486;28;20622;-79
2022/07/13 12:32:12;;;;;;;2.53;1.40;;;37.20;40.90;;;;;;5033122;28;20659;-80
2022/07/13 12:34:52;;;;;;;4.43;1.30;;;37.10;40.70;;;;;;5032477;28;20232;-78
2022/07/13 12:37:37;;;;;;;2.60;0.97;;;37.00;40.50;;;;;;5048388;28;20252;-78
2022/07/13 12:40:04;;;;;;;2.80;0.90;;;36.80;40.40;;;;;;5031434;28;20576;-78
2022/07/13 12:42:32;;;;;;;2.00;1.00;;;36.80;40.40;;;;;;5031674;28;20603;-79
2022/07/13 12:44:58;;;;;;;4.33;0.80;;;36.70;40.70;;;;;;5032055;28;20603;-79
2022/07/13 12:47:24;;;;;;;2.63;0.80;;;36.70;40.70;;;;;;5032811;28;20576;-79
2022/07/13 12:49:51;;;;;;;1.80;0.80;;;36.70;40.80;;;;;;5032326;28;20576;-79
2022/07/13 12:52:19;;;;;;;2.90;0.70;;;36.70;40.70;;;;;;5031544;28;20638;-85
2022/07/13 12:54:50;;;;;;;2.50;0.70;;;36.70;40.70;;;;;;5031886;28;20632;-78
2022/07/13 12:57:24;;;;;;;2.80;0.87;;;36.80;40.10;;;;;;5032468;28;20572;-80
2022/07/13 13:00:11;;;;;;;2.73;0.80;;;36.70;39.80;;;;;;5032180;28;20573;-79
2022/07/13 13:02:38;;;;;;;1.50;0.70;;;36.70;39.80;;;;;;5031274;28;20971;-80
2022/07/13 13:05:07;;;;;;;3.33;0.97;;;36.70;39.90;;;;;;5030571;28;20623;-78
2022/07/13 13:07:36;;;;;;;2.43;0.90;;;36.80;40.10;;;;;;5032344;28;20561;-78
2022/07/13 13:10:07;;;;;;;2.27;0.90;;;36.80;40.00;;;;;;5031825;28;20596;-78